Minot, ND

1:55 PM CST on January 27, 2015 (GMT -0600)
Minot Air Force Base | Change Station
CLOSE
Current Station
Airport
Location: Minot AFB,
Elevation: 1667 ft
Nearby Weather Stations

Elev 1667 ft 48.42 °N, 101.36 °W | Updated 57 minutes ago

Partly Cloudy
Partly Cloudy
42 °F
Feels Like 40 °F
N
4
Wind Variable Wind from South

Today
High -- | Low -- °F
--% Chance of Precip.
Yesterday
High -- | Low -- °F
Precip. -- in
8:19 AM 5:36 PM
First Quarter, 57% visible
Pressure 29.87 in
Visibility 10.0 miles
Clouds Clear
Windchill 40 °F
Dew Point 41 °F
Humidity 96%
Rainfall 0.00 in
Snow Depth Not available.
UV 2 out of 12
Pollen .10 out of 12
Air Quality Not available.
Flu Activity Not available.
METAR KMIB 271858Z AUTO 18003KT 10SM CLR 06/05 A2980 RMK AO2 SLP113 T00570051 $

More Conditions Fewer Conditions

Pressure 29.87 in
Visibility 10.0 miles
Clouds Clear
Windchill 40 °F
Dew Point 41 °F
Humidity 96%
Rainfall 0.00 in
Snow Depth Not available.
UV 2 out of 12
Pollen .10 out of 12
Air Quality Not available.
Flu Activity Not available.
METAR KMIB 271858Z AUTO 18003KT 10SM CLR 06/05 A2980 RMK AO2 SLP113 T00570051 $

More Conditions Fewer Conditions

10-Day Weather Forecast

Almanac

Astronomy

Jan. 27, 2015 Rise Set
Actual Time
Civil Twilight
Nautical Twilight
Astronomical Twilight
Moon
Length of Visible Light
Length of Day
Tomorrow will be .
, % of the Moon is Illuminated

Today's Extremes

State Highs State Lows

Community

WunderPhotos

Upload Photos

1,790,837 photos uploaded!

WunderBlogs® & News

Nearby

Air Quality

  Air Quality AQ Index Pollutant
Not available.

Snow Depth

Station Depth Elevation

Earthquake Activity

City Distance Mag. Time & Date
Minimum magnitude displayed is 2.5.

Coastal Water Temperatures

Place Temperature

Nearby Weather Stations